createdAt,value
2023-04-28T00:01:38.053Z,9.10
2023-04-28T00:04:05.236Z,9.10
2023-04-28T00:06:32.132Z,9.10
2023-04-28T00:08:58.884Z,9.10
2023-04-28T00:11:25.740Z,9.10
2023-04-28T00:13:52.445Z,9.10
2023-04-28T00:16:19.188Z,9.20
2023-04-28T00:18:45.861Z,9.20
2023-04-28T00:21:12.454Z,9.20
2023-04-28T00:23:39.105Z,9.20
2023-04-28T00:26:06.124Z,9.20
2023-04-28T00:28:34.633Z,9.10
2023-04-28T00:31:02.513Z,9.10
2023-04-28T00:33:29.185Z,9.10
2023-04-28T00:36:05.079Z,9.20
2023-04-28T00:38:31.714Z,9.10
2023-04-28T00:40:58.345Z,9.10
2023-04-28T00:43:25.179Z,9.10
2023-04-28T00:45:52.282Z,9.10
2023-04-28T00:48:19.782Z,9.10
2023-04-28T00:50:47.601Z,9.10
2023-04-28T00:53:14.596Z,9.00
2023-04-28T00:55:41.242Z,9.00
2023-04-28T00:58:08.408Z,9.00
2023-04-28T01:00:35.424Z,9.00
2023-04-28T01:03:02.396Z,9.00
2023-04-28T01:05:30.382Z,9.10
2023-04-28T01:07:57.013Z,9.10
2023-04-28T01:10:23.655Z,9.00
2023-04-28T01:12:50.271Z,9.00
2023-04-28T01:15:18.580Z,9.10
2023-04-28T01:17:46.642Z,9.10
2023-04-28T01:20:14.290Z,9.10
2023-04-28T01:22:41.407Z,9.00
2023-04-28T01:25:08.627Z,9.00
2023-04-28T01:27:35.305Z,9.00
2023-04-28T01:30:02.188Z,9.00
2023-04-28T01:32:28.922Z,9.00
2023-04-28T01:34:55.606Z,9.00
2023-04-28T01:37:22.319Z,9.00
2023-04-28T01:39:48.980Z,9.00
2023-04-28T01:42:15.707Z,9.10
2023-04-28T01:44:42.374Z,9.10
2023-04-28T01:47:09.356Z,9.10
2023-04-28T01:49:35.991Z,9.10
2023-04-28T01:52:02.684Z,9.10
2023-04-28T01:54:29.352Z,9.10
2023-04-28T01:56:55.997Z,9.20
2023-04-28T01:59:25.233Z,9.20
2023-04-28T02:01:51.921Z,9.20
2023-04-28T02:04:19.019Z,9.20
2023-04-28T02:06:45.795Z,9.20
2023-04-28T02:09:12.598Z,9.20
2023-04-28T02:11:39.222Z,9.20
2023-04-28T02:14:05.884Z,9.20
2023-04-28T02:16:33.599Z,9.20
2023-04-28T02:19:00.607Z,9.20
2023-04-28T02:21:27.826Z,9.20
2023-04-28T02:23:54.556Z,9.20
2023-04-28T02:26:21.247Z,9.20
2023-04-28T02:28:49.052Z,9.20
2023-04-28T02:31:16.242Z,9.30
2023-04-28T02:33:43.038Z,9.30
2023-04-28T02:36:10.564Z,9.30
2023-04-28T02:38:37.571Z,9.30
2023-04-28T02:41:06.378Z,9.30
2023-04-28T02:43:33.675Z,9.30
2023-04-28T02:46:01.341Z,9.30
2023-04-28T02:48:28.102Z,9.30
2023-04-28T02:50:54.910Z,9.20
2023-04-28T02:53:22.437Z,9.10
2023-04-28T02:55:49.736Z,9.00
2023-04-28T02:58:18.113Z,9.00
2023-04-28T03:00:45.121Z,9.00
2023-04-28T03:03:12.313Z,9.00
2023-04-28T03:05:39.117Z,9.00
2023-04-28T03:08:06.182Z,9.00
2023-04-28T03:10:32.837Z,9.00
2023-04-28T03:12:59.653Z,9.00
2023-04-28T03:15:26.684Z,9.00
2023-04-28T03:17:53.440Z,9.00
2023-04-28T03:20:20.173Z,9.00
2023-04-28T03:22:46.777Z,9.00
2023-04-28T03:25:13.410Z,9.00
2023-04-28T03:27:40.153Z,9.10
2023-04-28T03:30:07.322Z,9.10
2023-04-28T03:32:33.989Z,9.10
2023-04-28T03:35:00.625Z,9.10
2023-04-28T03:37:27.534Z,9.20
2023-04-28T03:39:54.149Z,9.20
2023-04-28T03:42:20.756Z,9.10
2023-04-28T03:44:47.364Z,9.10
2023-04-28T03:47:14.045Z,9.10
2023-04-28T03:49:40.910Z,9.10
2023-04-28T03:52:07.579Z,9.10
2023-04-28T03:54:34.308Z,9.20
2023-04-28T03:57:01.805Z,9.20
2023-04-28T03:59:28.433Z,9.20
2023-04-28T04:01:55.091Z,9.20
2023-04-28T04:04:21.978Z,9.20
2023-04-28T04:06:49.468Z,9.20
2023-04-28T04:09:16.139Z,9.20
2023-04-28T04:11:42.761Z,9.20
2023-04-28T04:14:09.452Z,9.20
2023-04-28T04:16:36.841Z,9.20
2023-04-28T04:19:03.550Z,9.10
2023-04-28T04:21:31.744Z,9.10
2023-04-28T04:23:58.445Z,9.10
2023-04-28T04:26:25.499Z,9.10
2023-04-28T04:28:52.161Z,9.00
2023-04-28T04:31:22.477Z,9.00
2023-04-28T04:33:49.321Z,9.10
2023-04-28T04:36:15.963Z,9.10
2023-04-28T04:38:42.672Z,9.10
2023-04-28T04:41:09.280Z,9.10
2023-04-28T04:43:35.887Z,9.10
2023-04-28T04:46:03.957Z,9.20
2023-04-28T04:48:30.833Z,9.30
2023-04-28T04:50:57.459Z,9.30
2023-04-28T04:53:24.197Z,9.20
2023-04-28T04:55:50.890Z,9.30
2023-04-28T04:58:17.877Z,9.40
2023-04-28T05:00:44.716Z,9.40
2023-04-28T05:03:11.763Z,9.40
2023-04-28T05:05:38.510Z,9.40
2023-04-28T05:08:05.862Z,9.50
2023-04-28T05:10:32.905Z,9.50
2023-04-28T05:12:59.549Z,9.50
2023-04-28T05:15:26.316Z,9.50
2023-04-28T05:17:53.039Z,9.50
2023-04-28T05:20:19.792Z,9.50
2023-04-28T05:22:46.534Z,9.60
2023-04-28T05:25:13.148Z,9.50
2023-04-28T05:27:40.824Z,9.50
2023-04-28T05:30:08.842Z,9.60
2023-04-28T05:32:36.253Z,9.70
2023-04-28T05:35:03.255Z,9.70
2023-04-28T05:37:29.888Z,9.70
2023-04-28T05:39:56.517Z,9.70
2023-04-28T05:42:23.152Z,9.70
2023-04-28T05:44:49.757Z,9.70
2023-04-28T05:47:16.552Z,9.80
2023-04-28T05:49:43.210Z,9.80
2023-04-28T05:52:09.931Z,9.80
2023-04-28T05:54:36.601Z,9.80
2023-04-28T05:57:03.540Z,9.80
2023-04-28T05:59:31.458Z,9.70
2023-04-28T06:01:58.135Z,9.80
2023-04-28T06:04:26.092Z,9.70
2023-04-28T06:06:53.397Z,9.70
2023-04-28T06:09:20.301Z,9.70
2023-04-28T06:19:08.312Z,9.70
2023-04-28T06:21:34.964Z,10.40
2023-04-28T06:24:02.215Z,10.50
2023-04-28T06:26:29.129Z,10.50
2023-04-28T06:28:55.829Z,10.50
2023-04-28T06:31:22.477Z,10.50
2023-04-28T06:33:49.152Z,10.50
2023-04-28T06:36:17.723Z,10.50
2023-04-28T06:38:45.744Z,10.50
2023-04-28T06:48:34.738Z,10.60
2023-04-28T06:53:28.326Z,11.10
2023-04-28T06:55:54.979Z,11.30
2023-04-28T06:58:21.810Z,11.60
2023-04-28T07:00:48.495Z,11.80
2023-04-28T07:03:15.174Z,11.90
2023-04-28T07:05:41.985Z,12.00
2023-04-28T07:08:08.690Z,12.10
2023-04-28T07:10:35.348Z,12.10
2023-04-28T07:13:02.070Z,12.10
2023-04-28T07:15:28.912Z,12.10
2023-04-28T07:17:55.717Z,12.10
2023-04-28T07:20:22.608Z,12.00
2023-04-28T07:22:49.249Z,12.00
2023-04-28T07:25:15.971Z,12.20
2023-04-28T09:39:28.893Z,12.10
2023-04-28T09:41:55.600Z,11.30
2023-04-28T09:44:23.646Z,11.30
2023-04-28T09:46:50.313Z,11.30
2023-04-28T09:49:17.018Z,11.40
2023-04-28T09:51:43.865Z,11.30
2023-04-28T09:54:11.621Z,11.30
2023-04-28T09:56:41.230Z,11.30
2023-04-28T09:59:08.048Z,11.20
2023-04-28T10:01:40.534Z,11.20
2023-04-28T10:04:08.797Z,11.20
2023-04-28T10:06:38.690Z,11.30
2023-04-28T10:09:06.002Z,11.30
2023-04-28T10:11:33.975Z,11.30
2023-04-28T10:14:00.898Z,11.30
2023-04-28T10:16:31.381Z,11.30
2023-04-28T10:18:58.668Z,11.20
2023-04-28T10:21:27.134Z,11.20
2023-04-28T10:24:30.314Z,11.20
2023-04-28T10:27:29.078Z,11.30
2023-04-28T10:32:48.249Z,11.20
2023-04-28T10:35:45.078Z,11.20
2023-04-28T10:38:21.738Z,11.20
2023-04-28T10:40:52.561Z,11.20
2023-04-28T10:43:39.398Z,11.20
2023-04-28T10:46:08.402Z,11.10
2023-04-28T10:48:37.026Z,11.20
2023-04-28T10:51:21.437Z,11.10
2023-04-28T10:53:48.412Z,11.10
2023-04-28T10:56:19.395Z,11.20
2023-04-28T10:58:47.660Z,11.20
2023-04-28T11:01:20.650Z,11.20
2023-04-28T11:03:47.615Z,11.30
2023-04-28T11:06:27.104Z,11.30
2023-04-28T11:08:58.650Z,11.40
2023-04-28T11:11:26.981Z,11.40
2023-04-28T11:13:56.211Z,11.40
2023-04-28T11:16:26.142Z,11.30
2023-04-28T11:18:59.123Z,11.20
2023-04-28T11:21:28.755Z,11.20
2023-04-28T11:23:55.485Z,11.20
2023-04-28T11:26:23.563Z,11.10
2023-04-28T11:28:54.803Z,11.10
2023-04-28T11:31:24.241Z,11.10
2023-04-28T11:34:06.099Z,11.20
2023-04-28T11:36:38.285Z,11.20
2023-04-28T11:39:07.972Z,11.30
2023-04-28T11:41:36.819Z,11.30
2023-04-28T11:44:17.661Z,11.40
2023-04-28T11:46:56.008Z,11.40
2023-04-28T11:49:29.194Z,11.50
2023-04-28T11:51:57.304Z,11.60
2023-04-28T11:54:26.415Z,11.60
2023-04-28T11:56:54.905Z,11.60
2023-04-28T11:59:32.679Z,11.60
2023-04-28T12:02:07.136Z,11.60
2023-04-28T12:04:38.869Z,11.60
2023-04-28T12:07:10.551Z,11.70
2023-04-28T12:09:38.567Z,11.60
2023-04-28T12:12:07.173Z,11.60
2023-04-28T12:15:01.469Z,11.70
2023-04-28T12:17:37.807Z,11.70
2023-04-28T12:20:09.010Z,11.80
2023-04-28T12:22:49.511Z,11.80
2023-04-28T12:25:17.839Z,11.90
2023-04-28T12:28:04.657Z,12.10
2023-04-28T12:30:41.602Z,12.30
2023-04-28T12:33:25.518Z,12.30
2023-04-28T12:35:54.723Z,12.40
2023-04-28T12:38:21.645Z,12.50
2023-04-28T12:40:48.225Z,12.50
2023-04-28T12:43:15.385Z,12.60
2023-04-28T12:45:42.076Z,12.70
2023-04-28T12:48:08.741Z,12.70
2023-04-28T12:50:35.401Z,12.70
2023-04-28T12:53:02.292Z,12.80
2023-04-28T12:55:29.611Z,12.90
2023-04-28T12:57:56.320Z,12.90
2023-04-28T13:00:24.937Z,12.90
2023-04-28T13:39:51.088Z,13.00
2023-04-28T15:45:37.214Z,13.80
2023-04-28T15:48:06.157Z,13.60
2023-04-28T15:50:33.151Z,13.50
2023-04-28T15:53:00.195Z,13.50
2023-04-28T15:55:27.026Z,13.50
2023-04-28T15:57:53.667Z,13.50
2023-04-28T16:00:20.537Z,13.40
2023-04-28T16:02:47.408Z,13.50
2023-04-28T16:05:14.784Z,13.50
2023-04-28T16:07:41.632Z,13.50
2023-04-28T16:10:14.186Z,13.50
2023-04-28T16:12:41.834Z,13.50
2023-04-28T16:15:11.546Z,13.30
2023-04-28T16:17:39.344Z,13.30
2023-04-28T16:20:07.724Z,13.30
2023-04-28T16:22:35.685Z,13.20
2023-04-28T16:25:04.042Z,13.20
2023-04-28T16:27:31.433Z,13.20
2023-04-28T16:29:58.536Z,13.20
2023-04-28T16:32:25.264Z,13.10
2023-04-28T16:34:52.322Z,13.20
2023-04-28T16:37:19.188Z,13.20
2023-04-28T16:39:46.528Z,13.20
2023-04-28T16:42:13.346Z,13.20
2023-04-28T16:44:40.205Z,13.20
2023-04-28T16:47:07.716Z,13.20
2023-04-28T16:49:34.817Z,13.30
2023-04-28T16:52:03.982Z,13.20
2023-04-28T16:54:31.739Z,13.10
2023-04-28T16:56:59.456Z,13.10
2023-04-28T16:59:29.425Z,13.00
2023-04-28T17:01:59.915Z,13.10
2023-04-28T17:04:27.612Z,13.20
2023-04-28T17:06:54.975Z,13.20
2023-04-28T17:09:22.533Z,13.10
2023-04-28T17:11:50.248Z,13.00
2023-04-28T17:14:17.727Z,13.20
2023-04-28T17:16:44.736Z,13.00
2023-04-28T17:19:12.312Z,13.00
2023-04-28T17:21:39.025Z,13.10
2023-04-28T17:36:28.742Z,12.90
2023-04-28T17:38:56.085Z,12.80
2023-04-28T17:41:23.076Z,12.80
2023-04-28T17:43:53.795Z,12.70
2023-04-28T17:48:49.548Z,12.70
2023-04-28T17:51:16.274Z,12.50
2023-04-28T18:03:37.968Z,12.40
2023-04-28T18:06:11.232Z,12.40
2023-04-28T18:13:35.725Z,12.20
2023-04-28T18:16:04.464Z,12.00
2023-04-28T18:18:34.727Z,12.00
2023-04-28T18:21:02.404Z,12.00
2023-04-28T18:23:30.283Z,12.00
2023-04-28T18:25:56.991Z,12.00
2023-04-28T18:28:24.080Z,12.00
2023-04-28T18:30:50.773Z,12.00
2023-04-28T18:33:23.092Z,12.00
2023-04-28T18:36:01.656Z,12.00
2023-04-28T18:38:28.562Z,12.00
2023-04-28T18:40:55.298Z,12.00
2023-04-28T18:43:23.526Z,11.90
2023-04-28T18:45:50.304Z,11.90
2023-04-28T18:48:17.766Z,11.90
2023-04-28T18:50:47.599Z,11.80
2023-04-28T18:53:14.208Z,11.80
2023-04-28T18:55:40.846Z,11.80
2023-04-28T18:58:12.000Z,11.70
2023-04-28T19:00:39.077Z,11.60
2023-04-28T19:03:06.125Z,11.60
2023-04-28T19:05:33.835Z,11.60
2023-04-28T19:08:00.528Z,11.40
2023-04-28T19:10:27.220Z,11.40
2023-04-28T19:12:53.920Z,11.40
2023-04-28T19:15:20.589Z,11.30
2023-04-28T19:17:47.373Z,11.30
2023-04-28T19:20:14.089Z,11.30
2023-04-28T19:22:41.452Z,11.20
2023-04-28T19:25:08.817Z,11.20
2023-04-28T19:27:40.274Z,11.20
2023-04-28T19:30:09.477Z,11.20
2023-04-28T19:32:36.121Z,11.20
2023-04-28T19:35:04.218Z,11.20
2023-04-28T19:37:31.701Z,11.20
2023-04-28T19:39:58.401Z,11.20
2023-04-28T19:42:25.017Z,11.20
2023-04-28T19:44:57.022Z,11.20
2023-04-28T19:47:27.972Z,11.10
2023-04-28T19:49:55.457Z,11.10
2023-04-28T19:52:22.727Z,11.20
2023-04-28T19:54:50.391Z,11.20
2023-04-28T19:57:18.586Z,11.20
2023-04-28T19:59:46.776Z,11.20
2023-04-28T20:02:14.139Z,11.30
2023-04-28T20:04:41.144Z,11.30
2023-04-28T20:07:09.070Z,11.20
2023-04-28T20:09:36.670Z,11.20
2023-04-28T20:12:05.378Z,11.30
2023-04-28T20:14:33.493Z,11.20
2023-04-28T20:17:04.804Z,11.20
2023-04-28T20:19:31.500Z,11.20
2023-04-28T20:21:58.311Z,11.20
2023-04-28T20:24:25.105Z,11.20
2023-04-28T20:26:54.383Z,11.20
2023-04-28T20:29:21.340Z,11.20
2023-04-28T20:31:48.385Z,11.10
2023-04-28T20:34:15.317Z,11.20
2023-04-28T20:36:43.000Z,11.20
2023-04-28T20:39:10.946Z,11.30
2023-04-28T20:41:38.368Z,11.20
2023-04-28T20:44:05.513Z,11.20
2023-04-28T20:46:33.352Z,11.10
2023-04-28T20:49:00.307Z,11.20
2023-04-28T20:51:28.872Z,11.10
2023-04-28T20:53:56.296Z,11.10
2023-04-28T20:56:22.999Z,11.10
2023-04-28T20:58:49.817Z,11.10
2023-04-28T21:01:16.532Z,11.00
2023-04-28T21:03:43.505Z,11.00
2023-04-28T21:06:10.225Z,11.00
2023-04-28T21:08:36.973Z,11.00
2023-04-28T21:11:03.608Z,11.00
2023-04-28T21:13:30.456Z,10.90
2023-04-28T21:15:57.418Z,11.00
2023-04-28T21:18:24.189Z,10.90
2023-04-28T21:20:51.124Z,10.90
2023-04-28T21:23:17.891Z,10.90
2023-04-28T21:25:44.784Z,10.90
2023-04-28T21:28:11.757Z,10.90
2023-04-28T21:30:38.416Z,10.90
2023-04-28T21:33:05.190Z,10.80
2023-04-28T21:35:31.896Z,10.80
2023-04-28T21:37:58.632Z,10.80
2023-04-28T21:40:25.624Z,10.70
2023-04-28T21:42:52.272Z,10.70
2023-04-28T21:45:18.887Z,10.70
2023-04-28T21:47:46.704Z,10.70
2023-04-28T21:50:13.388Z,10.60
2023-04-28T21:52:40.141Z,10.60
2023-04-28T21:55:07.306Z,10.60
2023-04-28T21:57:34.040Z,10.50
2023-04-28T22:00:00.738Z,10.50
2023-04-28T22:02:27.529Z,10.50
2023-04-28T22:04:55.118Z,10.50
2023-04-28T22:07:22.343Z,10.50
2023-04-28T22:09:49.218Z,10.50
2023-04-28T22:12:16.496Z,10.50
2023-04-28T22:14:43.168Z,10.50
2023-04-28T22:17:12.308Z,10.40
2023-04-28T22:19:38.926Z,10.50
2023-04-28T22:22:05.589Z,10.50
2023-04-28T22:24:32.528Z,10.50
2023-04-28T22:26:59.314Z,10.50
2023-04-28T22:29:26.094Z,10.50
2023-04-28T22:31:53.361Z,10.50
2023-04-28T22:34:21.342Z,10.50
2023-04-28T22:36:48.000Z,10.50
2023-04-28T22:39:15.447Z,10.50
2023-04-28T22:41:42.152Z,10.40
2023-04-28T22:44:08.894Z,10.50
2023-04-28T22:46:35.686Z,10.40
2023-04-28T22:49:03.059Z,10.40
2023-04-28T22:51:31.420Z,10.30
2023-04-28T22:53:58.054Z,10.30
2023-04-28T22:56:24.735Z,10.30
2023-04-28T23:01:18.526Z,10.30
2023-04-28T23:03:45.410Z,10.20
2023-04-28T23:06:12.106Z,10.20
2023-04-28T23:08:38.698Z,10.20
2023-04-28T23:11:06.801Z,10.20
2023-04-28T23:13:33.549Z,10.20
2023-04-28T23:16:00.579Z,10.20
2023-04-28T23:18:32.176Z,10.20
2023-04-28T23:20:59.100Z,10.20
2023-04-28T23:23:26.009Z,10.20
2023-04-28T23:25:52.883Z,10.10
2023-04-28T23:28:19.593Z,10.10
2023-04-28T23:30:46.520Z,10.00
2023-04-28T23:33:13.203Z,10.00
2023-04-28T23:35:41.858Z,10.10
2023-04-28T23:38:08.588Z,10.00
2023-04-28T23:40:35.264Z,10.00
2023-04-28T23:43:02.171Z,10.00
2023-04-28T23:45:29.180Z,10.00
2023-04-28T23:47:56.373Z,10.00
2023-04-28T23:50:23.849Z,10.00
2023-04-28T23:52:50.567Z,10.00
2023-04-28T23:55:17.305Z,10.00
2023-04-28T23:57:43.918Z,10.10
